createdAt,value
2018-03-01T00:00:33.808Z,12.02
2018-03-01T00:03:03.259Z,9.95
2018-03-01T00:05:33.038Z,11.15
2018-03-01T00:08:03.341Z,10.65
2018-03-01T00:10:33.190Z,10.63
2018-03-01T00:13:03.665Z,11.82
2018-03-01T00:15:33.400Z,10.50
2018-03-01T00:18:03.033Z,11.93
2018-03-01T00:20:33.052Z,11.52
2018-03-01T00:23:02.907Z,13.50
2018-03-01T00:25:32.426Z,11.43
2018-03-01T00:28:02.799Z,11.05
2018-03-01T00:30:32.862Z,12.90
2018-03-01T00:33:03.217Z,13.23
2018-03-01T00:35:33.099Z,9.82
2018-03-01T00:38:02.967Z,13.02
2018-03-01T00:40:33.115Z,12.48
2018-03-01T00:43:04.346Z,13.90
2018-03-01T00:45:34.223Z,11.85
2018-03-01T00:48:04.467Z,12.05
2018-03-01T00:50:33.995Z,12.75
2018-03-01T00:53:04.178Z,12.82
2018-03-01T00:55:34.443Z,11.48
2018-03-01T00:58:04.216Z,10.43
2018-03-01T01:00:33.779Z,10.52
2018-03-01T01:03:04.008Z,10.98
2018-03-01T01:05:33.756Z,13.85
2018-03-01T01:08:05.748Z,9.65
2018-03-01T01:10:36.400Z,11.88
2018-03-01T01:13:06.261Z,15.10
2018-03-01T01:15:36.044Z,12.52
2018-03-01T01:18:06.340Z,14.60
2018-03-01T01:20:36.292Z,13.77
2018-03-01T01:23:06.058Z,12.15
2018-03-01T01:25:36.320Z,13.13
2018-03-01T01:28:08.892Z,13.98
2018-03-01T01:30:38.465Z,16.75
2018-03-01T01:33:08.708Z,12.45
2018-03-01T01:35:38.550Z,14.60
2018-03-01T01:38:08.326Z,14.63
2018-03-01T01:40:38.338Z,17.95
2018-03-01T01:43:08.039Z,12.88
2018-03-01T01:45:37.818Z,12.15
2018-03-01T01:48:08.528Z,11.70
2018-03-01T01:50:47.798Z,13.18
2018-03-01T01:53:18.429Z,13.98
2018-03-01T01:55:48.901Z,16.50
2018-03-01T01:58:18.465Z,12.10
2018-03-01T02:00:49.214Z,14.75
2018-03-01T02:03:18.915Z,14.52
2018-03-01T02:05:48.798Z,13.15
2018-03-01T02:08:19.299Z,10.90
2018-03-01T02:10:48.986Z,12.40
2018-03-01T02:13:19.244Z,10.98
2018-03-01T02:15:50.507Z,14.90
2018-03-01T02:18:21.020Z,14.38
2018-03-01T02:20:50.785Z,18.00
2018-03-01T02:23:20.517Z,14.60
2018-03-01T02:25:53.417Z,13.18
2018-03-01T02:28:24.744Z,13.10
2018-03-01T02:30:55.069Z,13.38
2018-03-01T02:33:25.016Z,12.30
2018-03-01T02:35:55.869Z,16.52
2018-03-01T02:38:26.507Z,13.10
2018-03-01T02:41:02.730Z,15.90
2018-03-01T02:43:32.931Z,14.55
2018-03-01T02:46:04.312Z,16.58
2018-03-01T02:48:34.458Z,14.98
2018-03-01T02:51:04.087Z,14.65
2018-03-01T02:53:34.147Z,15.60
2018-03-01T02:56:04.436Z,13.45
2018-03-01T02:58:35.462Z,11.68
2018-03-01T03:01:06.052Z,13.25
2018-03-01T03:03:35.510Z,14.00
2018-03-01T03:06:06.076Z,14.25
2018-03-01T03:08:36.031Z,16.23
2018-03-01T03:11:06.456Z,14.40
2018-03-01T03:13:41.153Z,15.90
2018-03-01T03:16:11.453Z,18.45
2018-03-01T03:18:41.425Z,14.85
2018-03-01T03:21:11.725Z,15.40
2018-03-01T03:23:43.115Z,12.95
2018-03-01T03:26:13.279Z,14.13
2018-03-01T03:28:45.913Z,13.62
2018-03-01T03:31:15.620Z,13.88
2018-03-01T03:33:45.930Z,13.50
2018-03-01T03:36:15.404Z,13.40
2018-03-01T03:38:46.254Z,13.05
2018-03-01T03:41:16.437Z,11.85
2018-03-01T03:43:46.937Z,14.13
2018-03-01T03:46:17.363Z,14.82
2018-03-01T03:48:47.600Z,17.33
2018-03-01T03:51:17.703Z,13.95
2018-03-01T03:53:47.754Z,15.48
2018-03-01T03:56:18.024Z,14.68
2018-03-01T03:58:48.525Z,14.80
2018-03-01T04:01:18.994Z,13.77
2018-03-01T04:03:48.892Z,13.77
2018-03-01T04:06:19.315Z,15.25
2018-03-01T04:08:49.957Z,14.43
2018-03-01T04:11:20.316Z,15.45
2018-03-01T04:13:49.802Z,14.43
2018-03-01T04:16:20.050Z,14.23
2018-03-01T04:18:49.557Z,13.45
2018-03-01T04:21:19.314Z,14.52
2018-03-01T04:23:49.918Z,14.20
2018-03-01T04:26:19.499Z,15.57
2018-03-01T04:28:49.278Z,14.10
2018-03-01T04:31:20.484Z,17.70
2018-03-01T04:33:50.823Z,12.20
2018-03-01T04:36:22.081Z,18.90
2018-03-01T04:38:52.871Z,14.52
2018-03-01T04:41:22.455Z,19.17
2018-03-01T04:43:52.598Z,14.23
2018-03-01T04:46:23.596Z,17.42
2018-03-01T04:48:53.292Z,16.17
2018-03-01T04:51:23.995Z,16.20
2018-03-01T04:53:54.293Z,17.02
2018-03-01T04:56:24.134Z,17.40
2018-03-01T04:58:54.547Z,13.82
2018-03-01T05:01:25.438Z,14.23
2018-03-01T05:03:55.734Z,12.50
2018-03-01T05:06:25.570Z,13.85
2018-03-01T05:08:56.127Z,17.95
2018-03-01T05:11:25.679Z,14.30
2018-03-01T05:13:55.387Z,16.87
2018-03-01T05:16:25.027Z,15.73
2018-03-01T05:18:54.703Z,14.32
2018-03-01T05:21:24.114Z,15.55
2018-03-01T05:23:54.631Z,14.23
2018-03-01T05:26:25.231Z,12.18
2018-03-01T05:28:55.655Z,13.82
2018-03-01T05:31:25.469Z,15.75
2018-03-01T05:33:55.014Z,14.32
2018-03-01T05:36:24.454Z,13.38
2018-03-01T05:38:54.565Z,15.80
2018-03-01T05:41:25.010Z,15.68
2018-03-01T05:43:54.425Z,15.82
2018-03-01T05:46:23.874Z,19.23
2018-03-01T05:48:53.730Z,17.42
2018-03-01T05:51:23.372Z,18.48
2018-03-01T05:53:52.961Z,16.08
2018-03-01T05:56:23.436Z,17.73
2018-03-01T05:58:53.193Z,15.30
2018-03-01T06:01:22.864Z,16.85
2018-03-01T06:03:53.083Z,22.40
2018-03-01T06:06:24.097Z,20.30
2018-03-01T06:08:53.680Z,19.15
2018-03-01T06:11:24.840Z,18.80
2018-03-01T06:13:54.671Z,30.48
2018-03-01T06:16:26.024Z,16.77
2018-03-01T06:18:59.854Z,16.23
2018-03-01T06:21:30.891Z,16.17
2018-03-01T06:24:01.801Z,39.42
2018-03-01T06:26:32.157Z,47.90
2018-03-01T06:29:03.166Z,24.40
2018-03-01T06:31:34.452Z,19.17
2018-03-01T06:34:04.413Z,23.40
2018-03-01T06:36:34.635Z,27.17
2018-03-01T06:39:04.477Z,38.55
2018-03-01T06:41:34.306Z,46.47
2018-03-01T06:44:04.913Z,52.60
2018-03-01T06:46:35.014Z,42.62
2018-03-01T06:49:06.488Z,48.58
2018-03-01T06:51:36.472Z,26.65
2018-03-01T06:54:06.276Z,54.03
2018-03-01T06:56:36.276Z,45.40
2018-03-01T06:59:06.058Z,52.20
2018-03-01T07:01:35.818Z,30.15
2018-03-01T07:04:05.868Z,40.42
2018-03-01T07:06:35.639Z,65.87
2018-03-01T07:09:07.271Z,41.63
2018-03-01T07:11:38.656Z,27.13
2018-03-01T07:14:08.380Z,40.63
2018-03-01T07:16:37.861Z,22.33
2018-03-01T07:19:08.342Z,70.93
2018-03-01T07:21:37.911Z,45.40
2018-03-01T07:24:08.251Z,36.15
2018-03-01T07:26:38.950Z,43.63
2018-03-01T07:29:08.665Z,50.70
2018-03-01T07:31:38.148Z,47.13
2018-03-01T07:34:08.118Z,27.08
2018-03-01T07:36:37.584Z,36.05
2018-03-01T07:39:07.421Z,34.70
2018-03-01T07:41:37.485Z,20.70
2018-03-01T07:44:06.887Z,26.48
2018-03-01T07:46:37.295Z,26.95
2018-03-01T07:49:08.087Z,20.48
2018-03-01T07:51:37.714Z,18.83
2018-03-01T07:54:07.169Z,18.20
2018-03-01T07:56:36.905Z,16.92
2018-03-01T07:59:07.219Z,18.90
2018-03-01T08:01:36.639Z,23.73
2018-03-01T08:04:06.697Z,19.25
2018-03-01T08:06:36.177Z,19.90
2018-03-01T08:09:06.053Z,19.25
2018-03-01T08:11:36.780Z,18.67
2018-03-01T08:14:06.433Z,19.70
2018-03-01T08:16:37.578Z,15.38
2018-03-01T08:19:07.414Z,19.60
2018-03-01T08:21:36.835Z,20.30
2018-03-01T08:24:06.780Z,16.08
2018-03-01T08:26:36.763Z,17.65
2018-03-01T08:29:06.288Z,16.33
2018-03-01T08:31:37.693Z,19.65
2018-03-01T08:34:09.139Z,19.02
2018-03-01T08:36:38.621Z,19.00
2018-03-01T08:39:08.474Z,18.95
2018-03-01T08:41:38.534Z,16.40
2018-03-01T08:44:09.773Z,16.40
2018-03-01T08:46:41.264Z,18.15
2018-03-01T08:49:10.730Z,15.20
2018-03-01T08:51:40.320Z,18.67
2018-03-01T08:54:15.729Z,17.27
2018-03-01T08:56:45.642Z,18.23
2018-03-01T08:59:15.471Z,20.73
2018-03-01T09:01:47.399Z,19.85
2018-03-01T09:04:17.347Z,17.45
2018-03-01T09:06:47.497Z,18.35
2018-03-01T09:09:17.383Z,16.48
2018-03-01T09:11:47.739Z,18.17
2018-03-01T09:14:18.049Z,16.77
2018-03-01T09:16:47.720Z,14.93
2018-03-01T09:19:17.167Z,14.93
2018-03-01T09:21:47.074Z,18.00
2018-03-01T09:24:16.526Z,17.12
2018-03-01T09:26:46.293Z,15.93
2018-03-01T09:29:16.017Z,16.02
2018-03-01T09:31:45.466Z,17.58
2018-03-01T09:34:14.919Z,14.00
2018-03-01T09:36:44.688Z,18.42
2018-03-01T09:39:14.180Z,20.40
2018-03-01T09:41:44.502Z,20.20
2018-03-01T09:44:15.666Z,13.68
2018-03-01T09:46:45.398Z,15.80
2018-03-01T09:49:14.842Z,16.05
2018-03-01T09:51:45.369Z,18.75
2018-03-01T09:54:14.788Z,16.77
2018-03-01T09:56:44.371Z,15.80
2018-03-01T09:59:14.198Z,19.75
2018-03-01T10:01:44.216Z,22.17
2018-03-01T10:04:14.223Z,16.60
2018-03-01T10:06:44.787Z,16.45
2018-03-01T10:09:14.558Z,17.58
2018-03-01T10:11:45.496Z,14.93
2018-03-01T10:14:15.260Z,18.50
2018-03-01T10:16:45.504Z,15.02
2018-03-01T10:19:15.121Z,16.73
2018-03-01T10:21:45.374Z,18.02
2018-03-01T10:24:15.034Z,13.10
2018-03-01T10:26:44.541Z,18.45
2018-03-01T10:29:14.738Z,16.27
2018-03-01T10:31:44.305Z,18.50
2018-03-01T10:34:13.715Z,20.02
2018-03-01T10:36:44.574Z,15.45
2018-03-01T10:39:14.090Z,16.98
2018-03-01T10:41:43.605Z,14.93
2018-03-01T10:44:14.028Z,13.48
2018-03-01T10:46:44.127Z,16.37
2018-03-01T10:49:13.537Z,17.80
2018-03-01T10:51:42.978Z,23.17
2018-03-01T10:54:12.362Z,14.13
2018-03-01T10:56:43.097Z,17.77
2018-03-01T10:59:14.063Z,14.98
2018-03-01T11:01:47.660Z,13.45
2018-03-01T11:04:17.531Z,13.35
2018-03-01T11:06:47.788Z,17.02
2018-03-01T11:09:17.922Z,19.42
2018-03-01T11:11:47.599Z,15.57
2018-03-01T11:14:16.990Z,17.23
2018-03-01T11:16:46.507Z,16.27
2018-03-01T11:19:16.088Z,20.67
2018-03-01T11:21:45.553Z,18.35
2018-03-01T11:24:15.662Z,17.23
2018-03-01T11:26:46.812Z,17.02
2018-03-01T11:29:16.578Z,17.98
2018-03-01T11:31:47.186Z,17.37
2018-03-01T11:34:16.670Z,18.17
2018-03-01T11:36:46.146Z,15.98
2018-03-01T11:39:15.848Z,17.67
2018-03-01T11:41:45.809Z,17.48
2018-03-01T11:44:15.793Z,17.85
2018-03-01T11:46:46.799Z,17.67
2018-03-01T11:49:16.453Z,14.15
2018-03-01T11:51:46.550Z,15.90
2018-03-01T11:54:16.356Z,16.35
2018-03-01T11:56:45.770Z,15.20
2018-03-01T11:59:15.272Z,18.50
2018-03-01T12:01:44.801Z,14.45
2018-03-01T12:04:14.514Z,14.85
2018-03-01T12:06:44.924Z,20.58
2018-03-01T12:09:16.036Z,21.17
2018-03-01T12:11:45.924Z,17.48
2018-03-01T12:14:15.403Z,17.20
2018-03-01T12:16:46.835Z,15.30
2018-03-01T12:19:16.342Z,13.95
2018-03-01T12:21:46.683Z,18.25
2018-03-01T12:24:17.334Z,19.80
2018-03-01T12:26:47.105Z,16.83
2018-03-01T12:29:16.976Z,15.43
2018-03-01T12:31:46.753Z,14.18
2018-03-01T12:34:17.154Z,17.20
2018-03-01T12:36:46.962Z,15.82
2018-03-01T12:39:16.473Z,18.12
2018-03-01T12:41:45.919Z,17.92
2018-03-01T12:44:15.625Z,19.27
2018-03-01T12:46:45.133Z,15.73
2018-03-01T12:49:15.097Z,23.48
2018-03-01T12:51:45.016Z,20.65
2018-03-01T12:54:14.613Z,16.08
2018-03-01T12:56:44.232Z,15.95
2018-03-01T12:59:14.055Z,16.58
2018-03-01T13:01:44.001Z,19.75
2018-03-01T13:04:13.674Z,18.27
2018-03-01T13:06:43.245Z,18.37
2018-03-01T13:09:14.536Z,16.98
2018-03-01T13:11:45.057Z,18.12
2018-03-01T13:14:14.976Z,18.05
2018-03-01T13:16:44.854Z,15.18
2018-03-01T13:19:15.844Z,16.17
2018-03-01T13:21:46.663Z,15.65
2018-03-01T13:24:17.561Z,18.10
2018-03-01T13:26:47.152Z,18.90
2018-03-01T13:29:17.111Z,16.83
2018-03-01T13:31:47.964Z,19.50
2018-03-01T13:34:17.628Z,18.30
2018-03-01T13:36:48.002Z,16.00
2018-03-01T13:39:17.852Z,18.58
2018-03-01T13:41:47.425Z,16.08
2018-03-01T13:44:17.374Z,18.58
2018-03-01T13:46:47.001Z,19.58
2018-03-01T13:49:16.601Z,16.55
2018-03-01T13:51:47.967Z,19.12
2018-03-01T13:54:17.647Z,15.38
2018-03-01T13:56:47.214Z,19.27
2018-03-01T13:59:17.121Z,14.48
2018-03-01T14:01:47.069Z,21.25
2018-03-01T14:04:16.624Z,15.13
2018-03-01T14:06:47.321Z,17.75
2018-03-01T14:09:17.232Z,15.20
2018-03-01T14:11:46.847Z,21.70
2018-03-01T14:14:16.803Z,19.52
2018-03-01T14:16:46.653Z,18.45
2018-03-01T14:19:16.270Z,17.77
2018-03-01T14:21:46.819Z,17.95
2018-03-01T14:24:16.802Z,17.00
2018-03-01T14:26:46.440Z,17.42
2018-03-01T14:29:18.011Z,17.12
2018-03-01T14:31:47.792Z,17.77
2018-03-01T14:34:17.784Z,16.98
2018-03-01T14:36:47.616Z,13.95
2018-03-01T14:39:17.100Z,16.25
2018-03-01T14:41:46.517Z,16.67
2018-03-01T14:44:17.049Z,15.93
2018-03-01T14:46:46.518Z,18.37
2018-03-01T14:49:17.198Z,17.17
2018-03-01T14:51:48.268Z,19.77
2018-03-01T14:54:18.164Z,15.55
2018-03-01T14:56:48.622Z,17.83
2018-03-01T14:59:18.290Z,15.10
2018-03-01T15:01:47.859Z,21.40
2018-03-01T15:04:19.039Z,17.25
2018-03-01T15:06:48.630Z,15.70
2018-03-01T15:09:18.092Z,13.07
2018-03-01T15:11:49.040Z,18.90
2018-03-01T15:14:18.759Z,16.62
2018-03-01T15:16:48.315Z,15.20
2018-03-01T15:19:20.796Z,15.45
2018-03-01T15:21:50.356Z,15.95
2018-03-01T15:24:20.951Z,20.30
2018-03-01T15:26:50.947Z,20.33
2018-03-01T15:29:21.758Z,24.95
2018-03-01T15:31:51.405Z,14.43
2018-03-01T15:34:20.892Z,16.25
2018-03-01T15:36:52.045Z,16.80
2018-03-01T15:39:22.569Z,17.62
2018-03-01T15:41:52.280Z,16.83
2018-03-01T15:44:22.550Z,21.92
2018-03-01T15:46:52.544Z,16.77
2018-03-01T15:49:24.240Z,16.73
2018-03-01T15:51:56.570Z,17.45
2018-03-01T15:54:26.049Z,19.40
2018-03-01T15:56:56.345Z,20.20
2018-03-01T15:59:26.117Z,15.57
2018-03-01T16:01:56.419Z,17.33
2018-03-01T16:04:27.695Z,21.00
2018-03-01T16:07:00.272Z,19.85
2018-03-01T16:09:29.850Z,19.85
2018-03-01T16:11:59.924Z,17.45
2018-03-01T16:14:30.756Z,20.00
2018-03-01T16:17:00.310Z,17.35
2018-03-01T16:19:30.189Z,18.70
2018-03-01T16:22:02.332Z,17.37
2018-03-01T16:24:33.218Z,16.77
2018-03-01T16:27:03.855Z,17.15
2018-03-01T16:29:35.025Z,18.30
2018-03-01T16:32:04.612Z,14.05
2018-03-01T16:34:34.814Z,14.80
2018-03-01T16:37:04.630Z,16.65
2018-03-01T16:39:34.639Z,15.73
2018-03-01T16:42:04.688Z,18.52
2018-03-01T16:44:35.835Z,16.23
2018-03-01T16:47:05.620Z,14.63
2018-03-01T16:49:40.272Z,15.20
2018-03-01T16:52:10.107Z,18.55
2018-03-01T16:54:40.689Z,16.70
2018-03-01T16:57:10.241Z,16.27
2018-03-01T16:59:43.004Z,20.55
2018-03-01T17:02:12.542Z,14.07
2018-03-01T17:04:42.738Z,17.48
2018-03-01T17:07:14.327Z,16.20
2018-03-01T17:09:45.591Z,16.27
2018-03-01T17:12:16.024Z,18.55
2018-03-01T17:14:46.560Z,14.80
2018-03-01T17:17:16.072Z,19.62
2018-03-01T17:19:47.920Z,18.33
2018-03-01T17:22:17.971Z,17.90
2018-03-01T17:24:47.389Z,22.87
2018-03-01T17:27:18.638Z,22.08
2018-03-01T17:29:50.531Z,21.42
2018-03-01T17:32:20.593Z,31.92
2018-03-01T17:34:50.988Z,66.45
2018-03-01T17:37:20.869Z,36.72
2018-03-01T17:39:50.851Z,26.17
2018-03-01T17:42:22.621Z,25.33
2018-03-01T17:44:54.967Z,20.80
2018-03-01T17:47:24.562Z,25.70
2018-03-01T17:49:54.132Z,23.40
2018-03-01T17:52:25.431Z,32.75
2018-03-01T17:54:54.930Z,39.38
2018-03-01T17:57:24.396Z,26.65
2018-03-01T17:59:59.221Z,31.40
2018-03-01T18:02:29.445Z,31.62
2018-03-01T18:05:00.960Z,35.10
2018-03-01T18:07:30.540Z,34.20
2018-03-01T18:10:03.687Z,26.65
2018-03-01T18:12:34.379Z,25.33
2018-03-01T18:15:04.287Z,27.80
2018-03-01T18:17:35.084Z,18.00
2018-03-01T18:20:05.179Z,25.67
2018-03-01T18:22:35.475Z,16.55
2018-03-01T18:25:05.960Z,23.00
2018-03-01T18:27:37.562Z,25.10
2018-03-01T18:30:07.917Z,17.25
2018-03-01T18:32:37.931Z,17.50
2018-03-01T18:35:08.891Z,43.05
2018-03-01T18:37:39.175Z,35.38
2018-03-01T18:40:09.336Z,45.12
2018-03-01T18:42:44.330Z,47.20
2018-03-01T18:45:14.031Z,34.17
2018-03-01T18:47:49.389Z,36.97
2018-03-01T18:50:18.829Z,36.38
2018-03-01T18:52:51.234Z,32.22
2018-03-01T18:55:22.046Z,24.70
2018-03-01T18:57:53.342Z,26.25
2018-03-01T19:00:25.710Z,29.20
2018-03-01T19:02:59.791Z,28.92
2018-03-01T19:05:30.330Z,31.50
2018-03-01T19:08:01.961Z,28.58
2018-03-01T19:10:31.467Z,34.40
2018-03-01T19:13:03.480Z,28.08
2018-03-01T19:15:33.329Z,28.60
2018-03-01T19:18:03.405Z,30.27
2018-03-01T19:20:32.944Z,24.23
2018-03-01T19:23:04.244Z,30.85
2018-03-01T19:25:34.143Z,26.17
2018-03-01T19:28:03.742Z,21.20
2018-03-01T19:30:34.729Z,24.63
2018-03-01T19:33:04.700Z,19.25
2018-03-01T19:35:35.695Z,20.40
2018-03-01T19:38:05.970Z,21.05
2018-03-01T19:40:35.986Z,16.17
2018-03-01T19:43:06.970Z,18.95
2018-03-01T19:45:39.087Z,25.58
2018-03-01T19:48:08.662Z,21.40
2018-03-01T19:50:38.131Z,18.85
2018-03-01T19:53:08.463Z,16.05
2018-03-01T19:55:38.043Z,21.95
2018-03-01T19:58:09.911Z,21.23
2018-03-01T20:00:39.707Z,19.20
2018-03-01T20:03:09.710Z,24.30
2018-03-01T20:05:39.685Z,19.87
2018-03-01T20:08:10.475Z,20.60
2018-03-01T20:10:41.378Z,20.55
2018-03-01T20:13:11.026Z,15.88
2018-03-01T20:15:41.170Z,20.20
2018-03-01T20:18:11.486Z,20.42
2018-03-01T20:20:41.864Z,16.15
2018-03-01T20:23:11.736Z,21.37
2018-03-01T20:25:41.174Z,16.23
2018-03-01T20:28:10.748Z,19.42
2018-03-01T20:30:41.167Z,18.45
2018-03-01T20:33:10.570Z,17.95
2018-03-01T20:35:40.203Z,21.70
2018-03-01T20:38:09.967Z,20.23
2018-03-01T20:40:39.384Z,20.17
2018-03-01T20:43:08.941Z,16.67
2018-03-01T20:45:39.049Z,18.58
2018-03-01T20:48:08.956Z,18.77
2018-03-01T20:50:38.402Z,15.52
2018-03-01T20:53:08.359Z,17.15
2018-03-01T20:55:38.687Z,18.08
2018-03-01T20:58:08.385Z,17.05
2018-03-01T21:00:38.557Z,18.12
2018-03-01T21:03:08.038Z,17.23
2018-03-01T21:05:37.515Z,17.70
2018-03-01T21:08:07.396Z,19.33
2018-03-01T21:10:37.175Z,18.55
2018-03-01T21:13:06.873Z,18.70
2018-03-01T21:15:36.914Z,17.87
2018-03-01T21:18:06.378Z,17.80
2018-03-01T21:20:35.817Z,16.55
2018-03-01T21:23:05.691Z,18.20
2018-03-01T21:25:35.136Z,19.62
2018-03-01T21:28:06.273Z,18.85
2018-03-01T21:30:36.898Z,19.77
2018-03-01T21:33:06.803Z,19.85
2018-03-01T21:35:36.491Z,16.58
2018-03-01T21:38:06.352Z,16.70
2018-03-01T21:40:35.945Z,17.92
2018-03-01T21:43:05.782Z,20.00
2018-03-01T21:45:35.249Z,17.92
2018-03-01T21:48:04.776Z,17.62
2018-03-01T21:50:34.552Z,21.95
2018-03-01T21:53:04.910Z,17.15
2018-03-01T21:55:34.394Z,22.30
2018-03-01T21:58:03.830Z,15.60
2018-03-01T22:00:33.891Z,16.95
2018-03-01T22:03:04.315Z,19.35
2018-03-01T22:05:34.904Z,16.12
2018-03-01T22:08:06.025Z,20.77
2018-03-01T22:10:37.264Z,21.45
2018-03-01T22:13:07.533Z,21.77
2018-03-01T22:15:37.798Z,23.73
2018-03-01T22:18:07.492Z,19.65
2018-03-01T22:20:37.615Z,18.60
2018-03-01T22:23:07.679Z,18.62
2018-03-01T22:25:38.343Z,17.50
2018-03-01T22:28:08.045Z,17.90
2018-03-01T22:30:37.707Z,23.17
2018-03-01T22:33:07.171Z,17.70
2018-03-01T22:35:38.969Z,18.80
2018-03-01T22:38:09.930Z,19.35
2018-03-01T22:40:40.758Z,19.25
2018-03-01T22:43:10.741Z,19.87
2018-03-01T22:45:41.491Z,18.98
2018-03-01T22:48:11.381Z,16.62
2018-03-01T22:50:41.092Z,18.40
2018-03-01T22:53:10.974Z,21.12
2018-03-01T22:55:41.734Z,18.23
2018-03-01T22:58:11.193Z,17.92
2018-03-01T23:00:49.561Z,24.42
2018-03-01T23:03:19.042Z,17.92
2018-03-01T23:05:49.317Z,28.80
2018-03-01T23:08:19.160Z,26.58
2018-03-01T23:10:49.006Z,27.10
2018-03-01T23:13:18.661Z,30.00
2018-03-01T23:15:48.114Z,31.37
2018-03-01T23:18:17.934Z,42.50
2018-03-01T23:20:49.123Z,25.17
2018-03-01T23:23:19.246Z,26.45
2018-03-01T23:25:48.678Z,36.70
2018-03-01T23:28:18.183Z,44.30
2018-03-01T23:30:47.617Z,33.10
2018-03-01T23:33:17.828Z,23.45
2018-03-01T23:35:48.245Z,25.62
2018-03-01T23:38:18.003Z,21.95
2018-03-01T23:40:47.686Z,22.77
2018-03-01T23:43:17.684Z,25.67
2018-03-01T23:46:24.281Z,23.70
2018-03-01T23:48:54.853Z,30.23
2018-03-01T23:51:24.491Z,23.95
2018-03-01T23:53:55.205Z,28.27
2018-03-01T23:56:26.162Z,28.77
2018-03-01T23:58:59.515Z,25.85
